Tiempo atmosférico en la estación meteorológica de Las Palmas de Gran Canaria, Tafira, Las Palmas (269 m.)



Fecha
DESCASC
Temp. máxima en grados centígrados (hora)
DESCASC
Temp. mínima en grados centígrados (hora)
DESCASC
Temp. media en grados centígrados
DESCASC
Racha de viento máxima en m/sg (hora)
DESCASC
Velocidad máxima media en intervalos de 10 minutos(hora)
DESCASC
Precipitaciones diarias en mm
DESCASC
Precipitaciones de 00:00 a 06:00 en mm
DESCASC
Precipitaciones de 06:00 a 12:00 en mm
DESCASC
Precipitaciones de 12:00 a 18:00 en mm
DESCASC
Precipitaciones de 18:00 a 24:00 en mm
DESCASC
15-08-2019 23.7 (14:30) 18.8 (04:30) 21.3 10 (14:40) 6.39 (15:30) 0 0 0 0 0
14-08-2019 24.1 (15:30) 18.3 (00:00) 21.2 9.17 (14:20) 5 (18:10) 0 0 0 0 0
13-08-2019 22.5 (14:30) 18.8 (00:00) 20.6 10 (20:20) 6.39 (19:50) 0 0 0 0 0
12-08-2019 22.6 (12:50) 19.3 (00:00) 20.9 10 (12:20) 6.67 (17:30) 0 0 0 0 0
11-08-2019 22.8 (15:20) 19.5 (00:00) 21.1 10 (15:10) 5.83 (14:30) 1.4 1.4 0 0 0
10-08-2019 24.9 (11:20) 19.7 (00:00) 22.3 8.33 (17:40) 5 (23:50) 0 0 0 0 0
09-08-2019 25.3 (14:40) 19.2 (00:00) 22.3 8.33 (18:20) 3.61 (07:10) 0 0 0 0 0
08-08-2019 24.5 (13:20) 19.3 (00:00) 21.9 6.11 (18:20) 3.33 (13:30) 0 0 0 0 0
07-08-2019 24.2 (15:30) 19.2 (00:00) 21.7 8.33 (11:00) 4.17 (01:20) 0 0 0 0 0
06-08-2019 23.8 (12:50) 19.6 (00:00) 21.7 11.39 (15:50) 6.39 (15:00) 0 0 0 0 0
05-08-2019 23.8 (15:20) 19.7 (00:00) 21.8 8.61 (19:00) 5.28 (18:50) 0 0 0 0 0
04-08-2019 23.6 (13:50) 18.7 (00:00) 21.2 9.72 (13:30) 5 (14:30) 0 0 0 0 0
03-08-2019 21.8 (17:10) 18.9 (00:00) 20.3 10.28 (15:20) 6.11 (12:10) 0 0 0 0 0
02-08-2019 23.3 (16:10) 18.8 (00:00) 21 9.44 (19:20) 6.39 (17:50) 0 0 0 0 0
01-08-2019 23.1 (14:40) 18.6 (00:00) 20.9 10.56 (21:50) 6.39 (17:00) 0 0 0 0 0
31-07-2019 -- (--) -- (--) -- -- (--) -- (--) -- 0 0 -- --
30-07-2019 21.5 (13:20) 18.4 (00:00) 19.9 11.11 (17:00) 7.78 (17:00) 0.2 0 0.2 0 0
29-07-2019 22.8 (14:10) 19.2 (00:00) 21 10 (11:10) 6.67 (15:30) 0 0 0 0 0
28-07-2019 21.5 (15:00) 18.9 (00:00) 20.2 10.28 (13:50) 6.67 (15:30) 0.4 0 0.2 0.2 0
27-07-2019 21.9 (16:00) 18.8 (00:00) 20.3 9.72 (17:20) 4.72 (15:40) 0 0 0 0 0
26-07-2019 22.9 (17:00) 18.8 (00:00) 20.8 7.78 (18:30) 4.72 (13:00) 0 0 0 0 0
25-07-2019 23.8 (11:20) 18 (00:00) 20.9 8.89 (21:20) 5 (20:40) 0 0 0 0 0
24-07-2019 23.4 (16:10) 18.4 (00:00) 20.9 10 (04:20) 5.83 (16:20) 0 0 0 0 0
23-07-2019 22.5 (14:40) 18.2 (00:00) 20.4 10.83 (18:30) 6.39 (17:40) 0 0 0 0 0
22-07-2019 22.3 (13:50) 18.6 (00:00) 20.4 9.44 (22:30) 6.11 (16:10) 0 0 0 0 0
21-07-2019 21.8 (16:00) 18.8 (00:00) 20.3 7.78 (19:10) 4.72 (13:20) 0 0 0 0 0
20-07-2019 22.9 (16:40) 18.2 (00:00) 20.6 10.83 (15:50) 5.83 (17:40) 0 0 0 0 0
19-07-2019 22.2 (15:30) 18.6 (00:00) 20.4 13.06 (09:50) 6.94 (09:50) 0 0 0 0 0

Gráficas

Temp. máximas Temp. mínimas Temp. medias Precipitaciones Rachas de viento máximas Velocidades máximas media en intervalos de 10 minutos

Datos horarios

Fecha y hora oficial Temperatura (ºC) Velocidad del viento (km/h) Dirección del viento Racha (km/h) Dirección de racha Precipitación (mm) Presión (hPa) Tendencia (hPa) Humedad (%)
2019-08-17 23:00:00 23.3 5 Oeste 13 Noroeste 0 -- -- 61
2019-08-17 22:00:00 23.6 6 Oeste 14 Oeste 0 -- -- 62
2019-08-17 21:00:00 24.3 6 Oeste 17 Oeste 0 -- -- 60
2019-08-17 20:00:00 25 10 Oeste 22 Oeste 0 -- -- 61
2019-08-17 19:00:00 24.5 11 Noroeste 25 Oeste 0 -- -- 70
2019-08-17 18:00:00 25.5 12 Noroeste 22 Noroeste 0 -- -- 64
2019-08-17 17:00:00 27.2 11 Noroeste 21 Noroeste 0 -- -- 60
2019-08-17 16:00:00 26.8 13 Noroeste 26 Noroeste 0 -- -- 63
2019-08-17 15:00:00 26.8 13 Noroeste 24 Noroeste 0 -- -- 64
2019-08-17 14:00:00 26.3 14 Noroeste 24 Norte 0 -- -- 66
2019-08-17 13:00:00 26 13 Noroeste 22 Noroeste 0 -- -- 70
2019-08-17 12:00:00 25.2 10 Noroeste 20 Noroeste 0 -- -- 72
2019-08-17 11:00:00 23.8 12 Noroeste 20 Noroeste 0 -- -- 79
2019-08-17 10:00:00 22.2 10 Noroeste 21 Oeste 0 -- -- 88
2019-08-17 09:00:00 20.9 11 Oeste 24 Noroeste 0 -- -- 93
2019-08-17 08:00:00 20.2 8 Noroeste 20 Oeste 0 -- -- 92
2019-08-17 07:00:00 20.2 11 Oeste 21 Oeste 0 -- -- 93
2019-08-17 06:00:00 20.3 9 Oeste 20 Oeste 0 -- -- 92
2019-08-17 05:00:00 20.6 10 Noroeste 20 Oeste 0 -- -- 90
2019-08-17 04:00:00 20.8 8 Noroeste 17 Noroeste 0 -- -- 88
2019-08-17 03:00:00 20.9 8 Noroeste 23 Oeste 0 -- -- 86
2019-08-17 02:00:00 21 12 Noroeste 22 Oeste 0 -- -- 87
2019-08-17 01:00:00 21.3 13 Oeste 26 Oeste 0 -- -- 85
2019-08-17 00:00:00 21.3 12 Noroeste 23 Oeste 0 -- -- 87
2019-08-16 23:00:00 21.3 14 Noroeste 30 Oeste 0 -- -- 89
2019-08-16 22:00:00 21.4 16 Noroeste 28 Oeste 0 -- -- 89
2019-08-16 21:00:00 21.6 12 Noroeste 26 Oeste 0 -- -- 88
2019-08-16 20:00:00 22.1 14 Noroeste 32 Noroeste 0 -- -- 86
2019-08-16 19:00:00 23.1 17 Noroeste 34 Noroeste 0 -- -- 82
2019-08-16 18:00:00 24.1 19 Noroeste 32 Noroeste 0 -- -- 78
2019-08-16 17:00:00 24.4 17 Noroeste 27 Noroeste 0 -- -- 76
2019-08-16 16:00:00 25.8 15 Noroeste 30 Noroeste 0 -- -- 70
2019-08-16 15:00:00 26.3 15 Noroeste 27 Noroeste -- -- -- 68
2019-08-16 14:00:00 25.9 14 Noroeste 24 Noroeste 0 -- -- 69
2019-08-16 13:00:00 25.6 14 Noroeste 23 Noroeste 0 -- -- 68
2019-08-16 12:00:00 24.6 12 Noroeste 25 Noroeste 0 -- -- 73
2019-08-16 11:00:00 23.1 12 Noroeste 28 Oeste 0 -- -- 80
2019-08-16 10:00:00 21.4 15 Noroeste 28 Oeste 0 -- -- 86
2019-08-16 09:00:00 20.2 14 Oeste 30 Oeste 0 -- -- 90
2019-08-16 08:00:00 19.8 14 Noroeste 28 Oeste 0 -- -- 93
2019-08-16 07:00:00 19.7 12 Noroeste 24 Noroeste 0 -- -- 92
2019-08-16 06:00:00 19.8 14 Noroeste 29 Noroeste 0 -- -- 92
2019-08-16 05:00:00 19.8 13 Noroeste 25 Noroeste 0 -- -- 93
2019-08-16 04:00:00 19.7 12 Noroeste 26 Noroeste 0 -- -- 92
2019-08-16 03:00:00 19.9 12 Noroeste 28 Oeste 0 -- -- 90
2019-08-16 02:00:00 20.1 13 Noroeste 25 Noroeste 0 -- -- 91
2019-08-16 01:00:00 20 16 Noroeste 28 Noroeste 0 -- -- 89
2019-08-16 00:00:00 20.3 15 Noroeste 26 Noroeste 0 -- -- 90
2019-08-15 23:00:00 20.2 14 Noroeste 29 Noroeste 0 -- -- 91
2019-08-15 22:00:00 20.5 15 Noroeste 27 Oeste 0 -- -- 90
2019-08-15 21:00:00 20.9 16 Noroeste 29 Noroeste 0 -- -- 89
2019-08-15 20:00:00 21.4 15 Noroeste 31 Noroeste 0 -- -- 83
2019-08-15 19:00:00 22.2 16 Noroeste 32 Noroeste 0 -- -- 80
2019-08-15 18:00:00 22.2 22 Noroeste 33 Noroeste 0 -- -- 79
2019-08-15 17:00:00 23 17 Noroeste 34 Noroeste 0 -- -- 75
2019-08-15 16:00:00 22.6 21 Noroeste 33 Noroeste 0 -- -- 77
2019-08-15 15:00:00 22.9 20 Noroeste 36 Noroeste 0 -- -- 77
2019-08-15 14:00:00 22.9 18 Noroeste 31 Noroeste 0 -- -- 76
2019-08-15 13:00:00 21.6 18 Noroeste 27 Noroeste 0 -- -- 83
2019-08-15 12:00:00 21.8 17 Noroeste 28 Noroeste 0 -- -- 80
2019-08-15 11:00:00 21.7 14 Noroeste 25 Noroeste 0 -- -- 81
2019-08-15 10:00:00 20.8 14 Noroeste 30 Noroeste 0 -- -- 83
2019-08-15 09:00:00 19.7 14 Oeste 29 Oeste 0 -- -- 85
2019-08-15 08:00:00 19 13 Oeste 27 Noroeste 0 -- -- 88
2019-08-15 07:00:00 18.9 15 Noroeste 27 Oeste 0 -- -- 86
2019-08-15 06:00:00 18.9 11 Noroeste 26 Oeste 0 -- -- 87
2019-08-15 05:00:00 18.9 15 Noroeste 28 Noroeste 0 -- -- 88
2019-08-15 04:00:00 18.9 13 Noroeste 25 Noroeste 0 -- -- 87
2019-08-15 03:00:00 19.1 15 Noroeste 26 Noroeste 0 -- -- 87
2019-08-15 02:00:00 19.4 12 Noroeste 23 Oeste 0 -- -- 88
2019-08-15 01:00:00 19.5 12 Noroeste 23 Noroeste 0 -- -- 88
2019-08-15 00:00:00 19.5 14 Noroeste 29 Oeste 0 -- -- 89
2019-08-14 23:00:00 19.6 14 Noroeste 30 Oeste 0 -- -- 88
2019-08-14 22:00:00 19.7 13 Noroeste 29 Noroeste 0 -- -- 87
2019-08-14 21:00:00 20 14 Noroeste 29 Noroeste 0 -- -- 85
2019-08-14 20:00:00 21.1 14 Noroeste 28 Noroeste 0 -- -- 81
2019-08-14 19:00:00 22.2 14 Noroeste 27 Noroeste 0 -- -- 76
2019-08-14 18:00:00 22.7 15 Noroeste 24 Noroeste 0 -- -- 73
2019-08-14 17:00:00 23.6 14 Noroeste 24 Noroeste 0 -- -- 69
2019-08-14 16:00:00 23.9 14 Noroeste 27 Noroeste 0 -- -- 69
2019-08-14 15:00:00 23.6 15 Noroeste 33 Noroeste 0 -- -- 70
2019-08-14 14:00:00 23.6 16 Noroeste 27 Noroeste 0 -- -- 69
2019-08-14 13:00:00 23.1 15 Noroeste 26 Noroeste 0 -- -- 70
2019-08-14 12:00:00 22.5 16 Noroeste 27 Noroeste 0 -- -- 72
2019-08-14 11:00:00 21.1 16 Noroeste 28 Noroeste 0 -- -- 77
2019-08-14 10:00:00 20.4 15 Noroeste 26 Noroeste 0 -- -- 81
2019-08-14 09:00:00 19.2 12 Noroeste 24 Noroeste 0 -- -- 85
2019-08-14 08:00:00 18.4 13 Oeste 27 Oeste 0 -- -- 87
2019-08-14 07:00:00 18.4 13 Oeste 24 Oeste 0 -- -- 86
2019-08-14 06:00:00 18.3 10 Oeste 24 Oeste 0 -- -- 86
2019-08-14 05:00:00 18.6 12 Oeste 27 Oeste 0 -- -- 86
2019-08-14 04:00:00 18.7 12 Oeste 24 Oeste 0 -- -- 85
2019-08-14 03:00:00 18.9 11 Noroeste 24 Noroeste 0 -- -- 86
2019-08-14 02:00:00 19 12 Noroeste 24 Noroeste 0 -- -- 85
2019-08-14 01:00:00 19 11 Noroeste 28 Noroeste 0 -- -- 84
2019-08-14 00:00:00 19.3 17 Noroeste 26 Noroeste 0 -- -- 83
2019-08-13 23:00:00 19.3 14 Noroeste 27 Noroeste 0 -- -- 82
2019-08-13 22:00:00 19.4 14 Noroeste 32 Noroeste 0 -- -- 82
2019-08-13 21:00:00 19.6 20 Noroeste 36 Noroeste 0 -- -- 82
2019-08-13 20:00:00 20.1 16 Noroeste 34 Noroeste 0 -- -- 79
2019-08-13 19:00:00 20.9 19 Noroeste 31 Noroeste 0 -- -- 76
2019-08-13 18:00:00 21.4 21 Noroeste 33 Noroeste 0 -- -- 77
2019-08-13 17:00:00 22.1 19 Noroeste 33 Noroeste 0 -- -- 72
2019-08-13 16:00:00 22 17 Noroeste 32 Norte 0 -- -- 75
2019-08-13 15:00:00 22.3 16 Noroeste 35 Noroeste 0 -- -- 72
2019-08-13 14:00:00 21.8 18 Noroeste 33 Noroeste 0 -- -- 73
2019-08-13 13:00:00 21.8 19 Noroeste 35 Noroeste 0 -- -- 73
2019-08-13 12:00:00 21.3 21 Noroeste 33 Noroeste 0 -- -- 73
2019-08-13 11:00:00 20.9 21 Noroeste 30 Noroeste 0 -- -- 76
2019-08-13 10:00:00 20.5 17 Noroeste 29 Noroeste 0 -- -- 80
2019-08-13 09:00:00 19.6 20 Noroeste 29 Noroeste 0 -- -- 83
2019-08-13 08:00:00 18.8 13 Noroeste 24 Noroeste 0 -- -- 85
2019-08-13 07:00:00 18.8 14 Noroeste 30 Noroeste 0 -- -- 85
2019-08-13 06:00:00 18.9 15 Noroeste 29 Noroeste 0 -- -- 86
2019-08-13 05:00:00 19 13 Noroeste 26 Noroeste 0 -- -- 87
2019-08-13 04:00:00 19 13 Noroeste 30 Noroeste 0 -- -- 87
2019-08-13 03:00:00 19.3 15 Noroeste 30 Oeste 0 -- -- 88
2019-08-13 02:00:00 19.2 13 Noroeste 28 Noroeste 0 -- -- 87
2019-08-13 01:00:00 19.3 14 Noroeste 32 Noroeste 0 -- -- 86
2019-08-13 00:00:00 19.5 15 Noroeste 27 Noroeste 0 -- -- 86
2019-08-12 23:00:00 19.6 14 Noroeste 27 Noroeste 0 -- -- 85
2019-08-12 22:00:00 19.7 14 Noroeste 31 Noroeste 0 -- -- 85
2019-08-12 21:00:00 19.9 17 Noroeste 32 Noroeste 0 -- -- 84
2019-08-12 20:00:00 20.3 20 Noroeste 32 Noroeste 0 -- -- 81
2019-08-12 19:00:00 21.2 21 Noroeste 33 Noroeste 0 -- -- 78
2019-08-12 18:00:00 21 19 Noroeste 32 Noroeste 0 -- -- 77
2019-08-12 17:00:00 21.7 20 Noroeste 35 Noroeste 0 -- -- 75
2019-08-12 16:00:00 22.6 20 Noroeste 32 Noroeste 0 -- -- 73
2019-08-12 15:00:00 22.1 18 Norte 31 Norte 0 -- -- 75
2019-08-12 14:00:00 22.2 17 Noroeste 36 Noroeste 0 -- -- 71
2019-08-12 13:00:00 22.5 17 Noroeste 36 Noroeste 0 -- -- 74
2019-08-12 12:00:00 21.5 20 Noroeste 33 Noroeste 0 -- -- 80
2019-08-12 11:00:00 21.6 17 Noroeste 32 Noroeste 0 -- -- 78
2019-08-12 10:00:00 20.9 17 Noroeste 30 Noroeste 0 -- -- 83
2019-08-12 09:00:00 20.3 14 Noroeste 26 Noroeste 0 -- -- 87
2019-08-12 08:00:00 19.5 10 Noroeste 24 Noroeste 0 -- -- 90
2019-08-12 07:00:00 19.4 12 Noroeste 23 Noroeste 0 -- -- 90
2019-08-12 06:00:00 19.4 13 Noroeste 24 Noroeste 0 -- -- 90
2019-08-12 05:00:00 19.4 14 Noroeste 23 Noroeste 0 -- -- 89
2019-08-12 04:00:00 19.5 13 Noroeste 26 Noroeste 0 -- -- 88
2019-08-12 03:00:00 19.5 10 Noroeste 22 Oeste 0 -- -- 88
2019-08-12 02:00:00 19.4 10 Noroeste 23 Noroeste 0 -- -- 88
2019-08-12 01:00:00 19.5 13 Noroeste 27 Oeste 0 -- -- 87
2019-08-12 00:00:00 19.5 13 Noroeste 24 Oeste 0 -- -- 85
2019-08-11 23:00:00 19.8 12 Noroeste 22 Noroeste 0 -- -- 86
2019-08-11 22:00:00 20 14 Noroeste 26 Noroeste 0 -- -- 86
2019-08-11 21:00:00 20.2 15 Noroeste 28 Noroeste 0 -- -- 85
2019-08-11 20:00:00 20.8 15 Noroeste 30 Norte 0 -- -- 82
2019-08-11 19:00:00 21.5 16 Noroeste 28 Noroeste 0 -- -- 79
2019-08-11 18:00:00 21.7 16 Noroeste 33 Noroeste 0 -- -- 76
2019-08-11 17:00:00 21.8 18 Noroeste 33 Norte 0 -- -- 75
2019-08-11 16:00:00 22.1 18 Noroeste 36 Noroeste 0 -- -- 77
2019-08-11 15:00:00 22.6 18 Noroeste 33 Noroeste 0 -- -- 75
2019-08-11 14:00:00 21.5 15 Noroeste 33 Noroeste 0 -- -- 84
2019-08-11 13:00:00 21.7 14 Noroeste 30 Noroeste 0 -- -- 85
2019-08-11 12:00:00 22.5 15 Noroeste 34 Noroeste 0 -- -- 81
2019-08-11 11:00:00 22.3 14 Noroeste 32 Noroeste 0 -- -- 81
2019-08-11 10:00:00 21.8 11 Noroeste 27 Noroeste 0 -- -- 87
2019-08-11 09:00:00 20.5 10 Noroeste 22 Noroeste 0 -- -- 94
2019-08-11 08:00:00 20.3 13 Noroeste 22 Noroeste 0 -- -- 95
2019-08-11 07:00:00 20.2 12 Noroeste 22 Noroeste 0 -- -- 96
2019-08-11 06:00:00 20.4 10 Noroeste 22 Noroeste 0.8 -- -- 96
2019-08-11 05:00:00 20.8 14 Noroeste 27 Noroeste 0 -- -- 95
2019-08-11 04:00:00 20.7 9 Oeste 18 Oeste 0.2 -- -- 95
2019-08-11 03:00:00 20.8 8 Noroeste 17 Noroeste 0.4 -- -- 96
2019-08-11 02:00:00 20.8 8 Noroeste 22 Noroeste 0 -- -- 95
2019-08-11 01:00:00 20.9 12 Noroeste 26 Noroeste 0 -- -- 94
2019-08-11 00:00:00 21.3 15 Noroeste 29 Noroeste 0 -- -- 91
2019-08-10 23:00:00 21.6 18 Noroeste 30 Noroeste 0 -- -- 88
2019-08-10 22:00:00 21.7 14 Noroeste 28 Noroeste 0 -- -- 86
2019-08-10 21:00:00 21.8 14 Noroeste 29 Noroeste 0 -- -- 86
2019-08-10 20:00:00 22.6 14 Noroeste 27 Noroeste 0 -- -- 82
2019-08-10 19:00:00 23.3 13 Noroeste 26 Noroeste 0 -- -- 79
2019-08-10 18:00:00 23.8 14 Noroeste 30 Noroeste 0 -- -- 76
2019-08-10 17:00:00 24.4 14 Noroeste 25 Noroeste 0 -- -- 74
2019-08-10 16:00:00 24.3 15 Noroeste 25 Noroeste 0 -- -- 74
2019-08-10 15:00:00 24.6 12 Noroeste 26 Noroeste 0 -- -- 72
2019-08-10 14:00:00 24.5 13 Noroeste 25 Noroeste 0 -- -- 74
2019-08-10 13:00:00 24.9 10 Norte 23 Noroeste 0 -- -- 74
2019-08-10 12:00:00 24.5 9 Norte 21 Norte 0 -- -- 73
2019-08-10 11:00:00 24.8 9 Noroeste 21 Noroeste 0 -- -- 66
2019-08-10 10:00:00 23.3 9 Noroeste 18 Oeste 0 -- -- 71
2019-08-10 09:00:00 21.1 7 Oeste 17 Oeste 0 -- -- 76
2019-08-10 08:00:00 20 8 Noroeste 23 Oeste 0 -- -- 83
2019-08-10 07:00:00 19.8 12 Noroeste 28 Oeste 0 -- -- 89
2019-08-10 06:00:00 19.9 13 Oeste 25 Oeste 0 -- -- 87
2019-08-10 05:00:00 19.8 13 Noroeste 22 Noroeste 0 -- -- 88
2019-08-10 04:00:00 19.9 10 Noroeste 23 Oeste 0 -- -- 84
2019-08-10 03:00:00 19.8 10 Noroeste 21 Oeste 0 -- -- 89
2019-08-10 02:00:00 20 11 Oeste 20 Noroeste 0 -- -- 90
2019-08-10 01:00:00 20 10 Noroeste 18 Oeste 0 -- -- 91
2019-08-10 00:00:00 20.2 9 Noroeste 17 Noroeste 0 -- -- 90
2019-08-09 23:00:00 20.2 9 Noroeste 20 Noroeste 0 -- -- 89
2019-08-09 22:00:00 20.4 10 Noroeste 21 Noroeste 0 -- -- 90
2019-08-09 21:00:00 20.7 10 Noroeste 20 Oeste 0 -- -- 87
2019-08-09 20:00:00 21.7 12 Noroeste 20 Noroeste 0 -- -- 82
2019-08-09 19:00:00 22.6 12 Noroeste 30 Noroeste 0 -- -- 78
2019-08-09 18:00:00 23 12 Noroeste 22 Noroeste 0 -- -- 77
2019-08-09 17:00:00 24 13 Noroeste 22 Noroeste 0 -- -- 71
2019-08-09 16:00:00 24.8 8 Nordeste 18 Nordeste 0 -- -- 69
2019-08-09 15:00:00 25 8 Nordeste 18 Norte 0 -- -- 69
2019-08-09 14:00:00 23.9 7 Nordeste 19 Nordeste 0 -- -- 73
2019-08-09 13:00:00 23 8 Nordeste 18 Nordeste 0 -- -- 75
2019-08-09 12:00:00 23.1 7 Nordeste 15 Nordeste 0 -- -- 76
2019-08-09 11:00:00 22 8 Noroeste 19 Norte 0 -- -- 81
2019-08-09 10:00:00 21.4 9 Noroeste 16 Noroeste 0 -- -- 83
2019-08-09 09:00:00 20 8 Noroeste 15 Oeste 0 -- -- 86
2019-08-09 08:00:00 19.4 9 Noroeste 21 Noroeste 0 -- -- 88
2019-08-09 07:00:00 19.4 12 Noroeste 22 Noroeste 0 -- -- 88
2019-08-09 06:00:00 19.5 11 Noroeste 21 Noroeste 0 -- -- 88
2019-08-09 05:00:00 19.5 9 Noroeste 16 Noroeste 0 -- -- 88
2019-08-09 04:00:00 19.6 11 Noroeste 22 Oeste 0 -- -- 88
2019-08-09 03:00:00 19.7 12 Noroeste 19 Noroeste 0 -- -- 89
2019-08-09 02:00:00 19.8 8 Noroeste 16 Noroeste 0 -- -- 88
2019-08-09 01:00:00 19.9 7 Noroeste 15 Noroeste 0 -- -- 88
2019-08-09 00:00:00 20.2 9 Noroeste 14 Noroeste 0 -- -- 87
2019-08-08 23:00:00 20.3 8 Noroeste 16 Noroeste 0 -- -- 87
2019-08-08 22:00:00 20.4 10 Noroeste 18 Noroeste 0 -- -- 88
2019-08-08 21:00:00 20.6 9 Noroeste 17 Noroeste 0 -- -- 86
2019-08-08 20:00:00 21.4 10 Noroeste 19 Noroeste 0 -- -- 82
2019-08-08 19:00:00 22.5 9 Noroeste 22 Noroeste 0 -- -- 79
2019-08-08 18:00:00 23.9 10 Noroeste 19 Norte 0 -- -- 74
2019-08-08 17:00:00 24 10 Norte 20 Norte 0 -- -- 72
2019-08-08 16:00:00 23.8 9 Nordeste 18 Nordeste 0 -- -- 75
2019-08-08 15:00:00 24.4 8 Norte 21 Nordeste 0 -- -- 72
2019-08-08 14:00:00 23.8 8 Nordeste 21 Nordeste 0 -- -- 73
2019-08-08 13:00:00 23.5 9 Nordeste 21 Nordeste 0 -- -- 73
2019-08-08 12:00:00 23.5 6 Norte 15 Noroeste 0 -- -- 73
2019-08-08 11:00:00 22.6 7 Noroeste 14 Noroeste 0 -- -- 75
2019-08-08 10:00:00 21.3 6 Noroeste 15 Noroeste 0 -- -- 81
2019-08-08 09:00:00 19.9 5 Noroeste 14 Noroeste 0 -- -- 86
2019-08-08 08:00:00 19.5 6 Noroeste 14 Noroeste 0 -- -- 87
2019-08-08 07:00:00 19.3 5 Noroeste 12 Noroeste 0 -- -- 86
2019-08-08 06:00:00 19.5 5 Noroeste 13 Norte 0 -- -- 86
2019-08-08 05:00:00 19.4 6 Noroeste 13 Noroeste 0 -- -- 87
2019-08-08 04:00:00 19.3 8 Noroeste 15 Noroeste 0 -- -- 87
2019-08-08 03:00:00 19.4 8 Noroeste 15 Noroeste 0 -- -- 88
2019-08-08 02:00:00 19.5 8 Noroeste 15 Norte 0 -- -- 89
2019-08-08 01:00:00 20 8 Noroeste 15 Noroeste 0 -- -- 88
2019-08-08 00:00:00 20.1 7 Noroeste 18 Norte 0 -- -- 86
2019-08-07 23:00:00 20.1 7 Noroeste 15 Oeste 0 -- -- 85
2019-08-07 22:00:00 19.9 9 Noroeste 21 Noroeste 0 -- -- 86
2019-08-07 21:00:00 20.3 12 Noroeste 22 Noroeste 0 -- -- 84
2019-08-07 20:00:00 20.9 13 Noroeste 24 Oeste 0 -- -- 80
2019-08-07 19:00:00 22.2 11 Noroeste 24 Norte 0 -- -- 75
2019-08-07 18:00:00 23 11 Norte 21 Norte 0 -- -- 74
2019-08-07 17:00:00 23.4 13 Noroeste 25 Norte 0 -- -- 70
2019-08-07 16:00:00 23.5 10 Norte 21 Noroeste 0 -- -- 70
2019-08-07 15:00:00 23.6 10 Noroeste 23 Norte 0 -- -- 70
2019-08-07 14:00:00 24.1 12 Norte 30 Noroeste 0 -- -- 67
2019-08-07 13:00:00 23.2 12 Norte 26 Noroeste 0 -- -- 72
2019-08-07 12:00:00 22.1 14 Noroeste 29 Noroeste 0 -- -- 77
2019-08-07 11:00:00 21.4 13 Noroeste 30 Oeste 0 -- -- 75
2019-08-07 10:00:00 20.9 13 Norte 26 Noroeste 0 -- -- 86
2019-08-07 09:00:00 19.9 11 Noroeste 22 Noroeste 0 -- -- 89
2019-08-07 08:00:00 19.4 11 Noroeste 19 Oeste 0 -- -- 89
2019-08-07 07:00:00 19.2 10 Noroeste 20 Oeste 0 -- -- 90
2019-08-07 06:00:00 19.3 12 Noroeste 23 Noroeste 0 -- -- 89
2019-08-07 05:00:00 19.3 9 Noroeste 22 Noroeste 0 -- -- 88
2019-08-07 04:00:00 19.3 8 Noroeste 24 Noroeste 0 -- -- 88
2019-08-07 03:00:00 19.7 10 Noroeste 21 Noroeste 0 -- -- 89
2019-08-07 02:00:00 19.5 9 Noroeste 25 Noroeste 0 -- -- 88
2019-08-07 01:00:00 19.6 10 Noroeste 26 Noroeste 0 -- -- 87
2019-08-07 00:00:00 20 15 Noroeste 27 Noroeste 0 -- -- 87
2019-08-06 23:00:00 20 13 Noroeste 28 Oeste 0 -- -- 85
2019-08-06 22:00:00 19.9 14 Noroeste 32 Noroeste 0 -- -- 85
2019-08-06 21:00:00 20.2 17 Noroeste 35 Noroeste 0 -- -- 84
2019-08-06 20:00:00 21.1 14 Noroeste 35 Oeste 0 -- -- 78
2019-08-06 19:00:00 22.2 17 Noroeste 33 Oeste 0 -- -- 74
2019-08-06 18:00:00 22.7 19 Noroeste 34 Oeste 0 -- -- 71
2019-08-06 17:00:00 23.2 22 Noroeste 39 Oeste 0 -- -- 69
2019-08-06 16:00:00 23.2 20 Noroeste 41 Noroeste 0 -- -- 73
2019-08-06 15:00:00 23.2 23 Noroeste 37 Noroeste 0 -- -- 72
2019-08-06 14:00:00 23.5 18 Noroeste 35 Oeste 0 -- -- 69
2019-08-06 13:00:00 23.8 15 Noroeste 31 Noroeste 0 -- -- 67
2019-08-06 12:00:00 22.4 15 Noroeste 27 Noroeste 0 -- -- 73
2019-08-06 11:00:00 21.8 14 Noroeste 29 Noroeste 0 -- -- 76
2019-08-06 10:00:00 21 14 Noroeste 26 Noroeste 0 -- -- 81
2019-08-06 09:00:00 20.2 12 Noroeste 27 Noroeste 0 -- -- 79
2019-08-06 08:00:00 20 12 Noroeste 24 Noroeste 0 -- -- 81
2019-08-06 07:00:00 19.8 13 Noroeste 24 Oeste 0 -- -- 87
2019-08-06 06:00:00 19.7 12 Noroeste 23 Oeste 0 -- -- 84
2019-08-06 05:00:00 19.7 12 Noroeste 26 Noroeste 0 -- -- 86
2019-08-06 04:00:00 19.8 12 Noroeste 27 Noroeste 0 -- -- 89
2019-08-06 03:00:00 19.8 13 Noroeste 24 Noroeste 0 -- -- 90
2019-08-06 02:00:00 19.9 12 Noroeste 25 Noroeste 0 -- -- 90
2019-08-06 01:00:00 19.9 12 Noroeste 28 Oeste 0 -- -- 87
2019-08-06 00:00:00 19.9 13 Noroeste 27 Oeste 0 -- -- 87
2019-08-05 23:00:00 20.2 11 Noroeste 26 Oeste 0 -- -- 87
2019-08-05 22:00:00 20.3 14 Noroeste 26 Noroeste 0 -- -- 86
2019-08-05 21:00:00 20.4 14 Noroeste 27 Noroeste 0 -- -- 87
2019-08-05 20:00:00 21 14 Noroeste 27 Noroeste 0 -- -- 82
2019-08-05 19:00:00 21.3 15 Noroeste 31 Noroeste 0 -- -- 81
2019-08-05 18:00:00 22 17 Noroeste 31 Noroeste 0 -- -- 78
2019-08-05 17:00:00 22.7 17 Noroeste 28 Noroeste 0 -- -- 75
2019-08-05 16:00:00 23.3 15 Noroeste 30 Noroeste 0 -- -- 71
2019-08-05 15:00:00 23.3 13 Noroeste 28 Noroeste 0 -- -- 70
2019-08-05 14:00:00 22.8 18 Noroeste 27 Noroeste 0 -- -- 74
2019-08-05 13:00:00 22.6 13 Noroeste 26 Norte 0 -- -- 73
2019-08-05 12:00:00 22.5 13 Noroeste 28 Noroeste 0 -- -- 72
2019-08-05 11:00:00 21.8 15 Noroeste 29 Noroeste 0 -- -- 73
2019-08-05 10:00:00 21.1 13 Noroeste 28 Noroeste 0 -- -- 81
2019-08-05 09:00:00 20.1 13 Noroeste 28 Noroeste 0 -- -- 87
2019-08-05 08:00:00 20 14 Noroeste 24 Noroeste 0 -- -- 88
2019-08-05 07:00:00 19.7 12 Noroeste 24 Noroeste 0 -- -- 84
2019-08-05 06:00:00 19.8 10 Noroeste 23 Noroeste 0 -- -- 90
2019-08-05 05:00:00 19.9 13 Noroeste 29 Noroeste 0 -- -- 90
2019-08-05 04:00:00 20 15 Noroeste 29 Noroeste 0 -- -- 89
2019-08-05 03:00:00 20.1 10 Noroeste 22 Oeste 0 -- -- 81
2019-08-05 02:00:00 20.1 8 Noroeste 21 Noroeste 0 -- -- 82
2019-08-05 01:00:00 20.3 8 Noroeste 23 Norte 0 -- -- 77
2019-08-05 00:00:00 20.1 7 Noroeste 21 Noroeste 0 -- -- 80
2019-08-04 23:00:00 20.2 10 Noroeste 27 Noroeste 0 -- -- 84
2019-08-04 22:00:00 20.2 10 Noroeste 29 Noroeste 0 -- -- 78
2019-08-04 21:00:00 20.5 10 Noroeste 22 Norte 0 -- -- 78
2019-08-04 20:00:00 20.7 14 Noroeste 28 Noroeste 0 -- -- 74
2019-08-04 19:00:00 21.7 15 Noroeste 28 Noroeste 0 -- -- 75
2019-08-04 18:00:00 22.2 13 Noroeste 29 Noroeste 0 -- -- 70
2019-08-04 17:00:00 23.1 14 Noroeste 30 Norte 0 -- -- 68
2019-08-04 16:00:00 23.4 12 Noroeste 29 Noroeste 0 -- -- 65
2019-08-04 15:00:00 23.1 14 Noroeste 32 Noroeste 0 -- -- 63
2019-08-04 14:00:00 23.3 16 Noroeste 35 Noroeste 0 -- -- 69
2019-08-04 13:00:00 22.7 15 Noroeste 32 Norte 0 -- -- 67
2019-08-04 12:00:00 22.1 13 Noroeste 28 Noroeste 0 -- -- 68
2019-08-04 11:00:00 21.3 15 Noroeste 27 Noroeste 0 -- -- 68
2019-08-04 10:00:00 20.1 10 Noroeste 23 Oeste 0 -- -- 80
2019-08-04 09:00:00 19.6 11 Noroeste 22 Oeste 0 -- -- 75
2019-08-04 08:00:00 19 9 Noroeste 21 Noroeste 0 -- -- 84
2019-08-04 07:00:00 18.9 12 Noroeste 21 Norte 0 -- -- 83
2019-08-04 06:00:00 18.9 10 Noroeste 21 Noroeste 0 -- -- 84
2019-08-04 05:00:00 19 12 Noroeste 23 Noroeste 0 -- -- 81
2019-08-04 04:00:00 19 15 Noroeste 23 Noroeste 0 -- -- 79
2019-08-04 03:00:00 19.1 10 Noroeste 23 Oeste 0 -- -- 78
2019-08-04 02:00:00 19.1 11 Noroeste 26 Noroeste 0 -- -- 77
2019-08-04 01:00:00 19.1 12 Noroeste 26 Noroeste 0 -- -- 76
2019-08-04 00:00:00 19.4 12 Noroeste 26 Noroeste 0 -- -- 77
2019-08-03 23:00:00 19.5 11 Noroeste 25 Noroeste 0 -- -- 76
2019-08-03 22:00:00 19.6 14 Noroeste 26 Oeste 0 -- -- 77
2019-08-03 21:00:00 19.5 19 Noroeste 29 Noroeste 0 -- -- 78
2019-08-03 20:00:00 20.3 15 Noroeste 31 Noroeste 0 -- -- 76
2019-08-03 19:00:00 20.5 17 Noroeste 32 Noroeste 0 -- -- 79
2019-08-03 18:00:00 21.6 17 Noroeste 34 Noroeste 0 -- -- 69
2019-08-03 17:00:00 21.2 20 Noroeste 36 Noroeste 0 -- -- 72
2019-08-03 16:00:00 21.5 19 Noroeste 37 Noroeste 0 -- -- 70
2019-08-03 15:00:00 21.3 22 Noroeste 34 Noroeste 0 -- -- 71
2019-08-03 14:00:00 21.1 16 Noroeste 32 Noroeste 0 -- -- 74
2019-08-03 13:00:00 20.6 19 Noroeste 32 Noroeste 0 -- -- 74
2019-08-03 12:00:00 20.2 17 Noroeste 29 Oeste 0 -- -- 77
2019-08-03 11:00:00 20.1 15 Noroeste 31 Noroeste 0 -- -- 77
2019-08-03 10:00:00 19.6 18 Noroeste 26 Noroeste 0 -- -- 80
2019-08-03 09:00:00 19.2 14 Noroeste 27 Noroeste 0 -- -- 79
2019-08-03 08:00:00 18.9 13 Noroeste 28 Noroeste 0 -- -- 79
2019-08-03 07:00:00 19 14 Noroeste 25 Noroeste 0 -- -- 79
2019-08-03 06:00:00 18.9 12 Noroeste 24 Norte 0 -- -- 78
2019-08-03 05:00:00 19 15 Noroeste 22 Noroeste 0 -- -- 80
2019-08-03 04:00:00 19.1 13 Noroeste 24 Noroeste 0 -- -- 84
2019-08-03 03:00:00 19.2 11 Noroeste 21 Noroeste 0 -- -- 83
2019-08-03 02:00:00 19.3 9 Noroeste 18 Noroeste 0 -- -- 81
2019-08-03 01:00:00 19.2 11 Noroeste 21 Noroeste 0 -- -- 80
2019-08-03 00:00:00 19.4 10 Noroeste 24 Noroeste 0 -- -- 80
2019-08-02 23:00:00 19.5 14 Noroeste 27 Noroeste 0 -- -- 78
2019-08-02 22:00:00 19.7 16 Noroeste 29 Noroeste 0 -- -- 80
2019-08-02 21:00:00 19.7 14 Noroeste 31 Noroeste 0 -- -- 80
2019-08-02 20:00:00 20.1 17 Noroeste 34 Noroeste 0 -- -- 78
2019-08-02 19:00:00 20.6 19 Noroeste 30 Noroeste 0 -- -- 76
2019-08-02 18:00:00 21 19 Noroeste 32 Noroeste 0 -- -- 75
2019-08-02 17:00:00 22.5 16 Noroeste 31 Noroeste 0 -- -- 68
2019-08-02 16:00:00 22.7 16 Noroeste 33 Noroeste 0 -- -- 69
2019-08-02 15:00:00 22.8 17 Noroeste 30 Noroeste 0 -- -- 65
2019-08-02 14:00:00 22.3 15 Norte 29 Noroeste 0 -- -- 71
2019-08-02 13:00:00 22.2 16 Noroeste 31 Norte 0 -- -- 67
2019-08-02 12:00:00 21.3 14 Noroeste 29 Noroeste 0 -- -- 74
2019-08-02 11:00:00 20.9 15 Noroeste 24 Norte 0 -- -- 73
2019-08-02 10:00:00 19.9 15 Noroeste 23 Noroeste 0 -- -- 77
2019-08-02 09:00:00 19.2 9 Noroeste 23 Noroeste 0 -- -- 78
2019-08-02 08:00:00 19.1 12 Noroeste 22 Noroeste 0 -- -- 80
2019-08-02 07:00:00 18.9 10 Noroeste 23 Noroeste 0 -- -- 77
2019-08-02 06:00:00 19.3 10 Noroeste 19 Noroeste 0 -- -- 81
2019-08-02 05:00:00 19.2 11 Noroeste 22 Noroeste 0 -- -- 79
2019-08-02 04:00:00 19.2 9 Noroeste 20 Noroeste 0 -- -- 77
2019-08-02 03:00:00 19.1 12 Noroeste 22 Noroeste 0 -- -- 77
2019-08-02 02:00:00 19 12 Noroeste 25 Noroeste 0 -- -- 77
2019-08-02 01:00:00 19.3 16 Noroeste 25 Noroeste 0 -- -- 80
2019-08-02 00:00:00 19.2 15 Noroeste 29 Noroeste 0 -- -- 81
2019-08-01 23:00:00 19.4 14 Noroeste 31 Noroeste 0 -- -- 79
2019-08-01 22:00:00 19.5 13 Noroeste 38 Oeste 0 -- -- 75
2019-08-01 21:00:00 19.7 17 Noroeste 31 Noroeste 0 -- -- 78
2019-08-01 20:00:00 19.8 21 Noroeste 33 Noroeste 0 -- -- 77
2019-08-01 19:00:00 20.8 17 Noroeste 33 Norte 0 -- -- 75
2019-08-01 18:00:00 21.5 21 Noroeste 35 Noroeste 0 -- -- 67
2019-08-01 17:00:00 21.3 23 Noroeste 35 Noroeste 0 -- -- 68
2019-08-01 16:00:00 21.8 19 Noroeste 33 Noroeste 0 -- -- 66
2019-08-01 15:00:00 22.1 15 Noroeste 36 Noroeste 0 -- -- 69
2019-08-01 14:00:00 22.8 17 Noroeste 32 Noroeste 0 -- -- 64
2019-08-01 13:00:00 22.1 17 Noroeste 34 Noroeste 0 -- -- 67
2019-08-01 12:00:00 20.8 13 Noroeste 26 Noroeste 0 -- -- 72
2019-08-01 11:00:00 21.7 14 Norte 24 Norte 0 -- -- 70
2019-08-01 10:00:00 19.9 12 Noroeste 21 Noroeste 0 -- -- 80
2019-08-01 09:00:00 19.9 10 Noroeste 23 Oeste 0 -- -- 78
2019-08-01 08:00:00 19 12 Noroeste 26 Noroeste 0 -- -- 76
2019-08-01 07:00:00 18.8 13 Noroeste 24 Noroeste 0 -- -- 79
2019-08-01 06:00:00 18.6 14 Noroeste 30 Noroeste 0 -- -- 74
2019-08-01 05:00:00 18.9 14 Noroeste 25 Oeste 0 -- -- 78
2019-08-01 04:00:00 18.9 17 Noroeste 32 Noroeste 0 -- -- 74
2019-08-01 03:00:00 19 17 Noroeste 33 Oeste 0 -- -- 77
2019-08-01 02:00:00 18.9 17 Noroeste 29 Noroeste 0 -- -- 75
2019-08-01 01:00:00 18.9 15 Noroeste 34 Noroeste 0 -- -- 73
2019-08-01 00:00:00 18.8 16 Noroeste 33 Noroeste 0 -- -- 78
2019-07-31 23:00:00 19.1 17 Noroeste 32 Noroeste 0 -- -- 79
2019-07-31 22:00:00 18.9 19 Noroeste 38 Noroeste 0 -- -- 78
2019-07-31 21:00:00 19.2 22 Noroeste 33 Norte 0 -- -- 77
2019-07-31 20:00:00 19.7 20 Noroeste 35 Noroeste 0 -- -- 76
2019-07-31 19:00:00 20.4 25 Noroeste -- -- -- -- -- 71
2019-07-31 18:00:00 -- -- -- -- -- -- -- -- --
2019-07-31 17:00:00 -- -- -- -- -- -- -- -- --
2019-07-31 16:00:00 -- -- -- -- -- -- -- -- --
2019-07-31 15:00:00 -- -- -- -- -- -- -- -- --
2019-07-31 14:00:00 -- -- -- -- -- -- -- -- --
2019-07-31 13:00:00 21.7 21 Noroeste 38 Noroeste 0 -- -- 66
2019-07-31 12:00:00 21 22 Noroeste 33 Noroeste 0 -- -- 64
2019-07-31 11:00:00 20.7 21 Noroeste 39 Noroeste 0 -- -- 65
2019-07-31 10:00:00 19.6 16 Noroeste 32 Noroeste 0 -- -- 76
2019-07-31 09:00:00 19.2 20 Noroeste 36 Noroeste 0 -- -- 74
2019-07-31 08:00:00 18.9 17 Noroeste 30 Noroeste 0 -- -- 75
2019-07-31 07:00:00 18.6 19 Noroeste 35 Noroeste 0 -- -- 72
2019-07-31 06:00:00 18.7 17 Noroeste 31 Noroeste 0 -- -- 75
2019-07-31 05:00:00 18.7 14 Noroeste 30 Noroeste 0 -- -- 77
2019-07-31 04:00:00 18.6 19 Noroeste 37 Noroeste 0 -- -- 78
2019-07-31 03:00:00 18.6 15 Noroeste 36 Noroeste 0 -- -- 76
2019-07-31 02:00:00 18.7 17 Noroeste 35 Noroeste 0 -- -- 80
2019-07-31 01:00:00 18.7 13 Noroeste 32 Noroeste 0 -- -- 81
2019-07-31 00:00:00 18.9 20 Noroeste 34 Noroeste 0 -- -- 82
2019-07-30 23:00:00 18.8 19 Noroeste 36 Noroeste 0 -- -- 81
2019-07-30 22:00:00 18.9 20 Noroeste 33 Noroeste 0 -- -- 82
2019-07-30 21:00:00 19.2 20 Noroeste 35 Noroeste 0 -- -- 85
2019-07-30 20:00:00 19.6 17 Noroeste 37 Noroeste 0 -- -- 81
2019-07-30 19:00:00 19.3 22 Noroeste 40 Noroeste 0 -- -- 86
2019-07-30 18:00:00 20.2 23 Noroeste 38 Noroeste 0 -- -- 77
2019-07-30 17:00:00 20.8 28 Noroeste 40 Noroeste 0 -- -- 75
2019-07-30 16:00:00 20.7 23 Noroeste 39 Noroeste 0 -- -- 76
2019-07-30 15:00:00 20.7 18 Noroeste 36 Norte 0 -- -- 79
2019-07-30 14:00:00 20 24 Noroeste 39 Noroeste 0 -- -- 83
2019-07-30 13:00:00 20.9 25 Noroeste 38 Noroeste 0 -- -- 78
2019-07-30 12:00:00 20.2 25 Noroeste 39 Noroeste 0 -- -- 83
2019-07-30 11:00:00 19.5 19 Noroeste 37 Noroeste 0 -- -- 85
2019-07-30 10:00:00 19 15 Noroeste 31 Noroeste 0 -- -- 89
2019-07-30 09:00:00 18.8 14 Noroeste 32 Noroeste 0 -- -- 91
2019-07-30 08:00:00 18.8 19 Noroeste 32 Norte 0.2 -- -- 92
2019-07-30 07:00:00 18.5 15 Noroeste 34 Noroeste 0 -- -- 92
2019-07-30 06:00:00 19.6 14 Noroeste 36 Noroeste 0 -- -- 90
2019-07-30 05:00:00 20 15 Noroeste 31 Oeste 0 -- -- 87
2019-07-30 04:00:00 20 14 Noroeste 33 Noroeste 0 -- -- 88
2019-07-30 03:00:00 20 12 Noroeste 27 Noroeste 0 -- -- 86
2019-07-30 02:00:00 20 12 Noroeste 31 Noroeste 0 -- -- 88
2019-07-30 01:00:00 19.9 11 Noroeste 26 Oeste 0 -- -- 89
2019-07-30 00:00:00 19.9 14 Noroeste 28 Oeste 0 -- -- 90
2019-07-29 23:00:00 20.3 11 Noroeste 28 Oeste 0 -- -- 86
2019-07-29 22:00:00 20.4 13 Noroeste 28 Oeste 0 -- -- 81
2019-07-29 21:00:00 20.2 13 Noroeste 35 Noroeste 0 -- -- 82
2019-07-29 20:00:00 20.4 13 Noroeste 29 Noroeste 0 -- -- 80
2019-07-29 19:00:00 20.7 14 Noroeste 32 Noroeste 0 -- -- 78
2019-07-29 18:00:00 21.5 17 Noroeste 36 Noroeste 0 -- -- 75
2019-07-29 17:00:00 20.8 21 Noroeste 33 Noroeste 0 -- -- 76
2019-07-29 16:00:00 21.2 23 Noroeste 36 Noroeste 0 -- -- 74
2019-07-29 15:00:00 22.3 21 Noroeste 35 Norte 0 -- -- 72
2019-07-29 14:00:00 22.5 17 Noroeste 35 Noroeste 0 -- -- 67
2019-07-29 13:00:00 21.9 18 Noroeste 33 Noroeste 0 -- -- 68
2019-07-29 12:00:00 21.6 17 Noroeste 36 Norte 0 -- -- 71
2019-07-29 11:00:00 20.7 20 Noroeste 33 Noroeste 0 -- -- 73
2019-07-29 10:00:00 19.9 16 Noroeste 29 Noroeste 0 -- -- 75
2019-07-29 09:00:00 19.6 15 Noroeste 30 Noroeste 0 -- -- 76
2019-07-29 08:00:00 19.4 15 Noroeste 25 Noroeste 0 -- -- 83
2019-07-29 07:00:00 19.3 12 Noroeste 27 Noroeste 0 -- -- 78
2019-07-29 06:00:00 19.2 13 Noroeste 28 Noroeste 0 -- -- 79
2019-07-29 05:00:00 19.3 13 Noroeste 28 Noroeste 0 -- -- 80
2019-07-29 04:00:00 19.4 13 Noroeste 26 Noroeste 0 -- -- 79
2019-07-29 03:00:00 19.4 15 Noroeste 30 Noroeste 0 -- -- 78
2019-07-29 02:00:00 19.5 14 Noroeste 27 Noroeste 0 -- -- 80
2019-07-29 01:00:00 19.6 13 Noroeste 26 Noroeste 0 -- -- 80
2019-07-29 00:00:00 19.6 14 Noroeste 28 Oeste 0 -- -- 85
2019-07-28 23:00:00 19.5 12 Noroeste 36 Noroeste 0 -- -- 84
2019-07-28 22:00:00 19.8 17 Noroeste 32 Noroeste 0 -- -- 85
2019-07-28 21:00:00 19.9 15 Noroeste 31 Noroeste 0 -- -- 84
2019-07-28 20:00:00 20.2 22 Noroeste 33 Noroeste 0 -- -- 83
2019-07-28 19:00:00 20.9 15 Noroeste 34 Oeste 0 -- -- 83
2019-07-28 18:00:00 21.4 19 Noroeste 32 Noroeste 0 -- -- 78
2019-07-28 17:00:00 21.3 17 Noroeste 36 Noroeste 0 -- -- 80
2019-07-28 16:00:00 21.2 22 Noroeste 36 Noroeste 0 -- -- 84
2019-07-28 15:00:00 21.5 21 Noroeste 33 Noroeste 0 -- -- 86
2019-07-28 14:00:00 21.2 17 Noroeste 37 Noroeste 0.2 -- -- 90
2019-07-28 13:00:00 20.6 15 Noroeste 31 Noroeste 0 -- -- 93
2019-07-28 12:00:00 20.6 13 Noroeste 27 Oeste 0 -- -- 94
2019-07-28 11:00:00 20.2 14 Noroeste 31 Noroeste 0 -- -- 93
2019-07-28 10:00:00 19.5 12 Noroeste 28 Noroeste 0.2 -- -- 97
2019-07-28 09:00:00 19.1 12 Noroeste 25 Oeste 0 -- -- 96
2019-07-28 08:00:00 19.1 14 Noroeste 26 Oeste 0 -- -- 93
2019-07-28 07:00:00 19.3 12 Noroeste 24 Noroeste 0 -- -- 87
2019-07-28 06:00:00 19.2 14 Noroeste 27 Oeste 0 -- -- 90
2019-07-28 05:00:00 19.3 12 Noroeste 23 Noroeste 0 -- -- 91
2019-07-28 04:00:00 19.4 11 Noroeste 24 Oeste 0 -- -- 90
2019-07-28 03:00:00 19.2 9 Noroeste 19 Oeste 0 -- -- 90
2019-07-28 02:00:00 18.9 8 Noroeste 18 Oeste 0 -- -- 90
2019-07-28 01:00:00 19.2 13 Noroeste 24 Noroeste 0 -- -- 85
2019-07-28 00:00:00 19 12 Noroeste 24 Noroeste 0 -- -- 85
2019-07-27 23:00:00 19.2 12 Noroeste 24 Noroeste 0 -- -- 84
2019-07-27 22:00:00 19.3 15 Noroeste 24 Noroeste 0 -- -- 86
2019-07-26 11:00:00 19.9 13 Noroeste 25 Noroeste 0 -- -- 89
2019-07-26 10:00:00 19.8 14 Noroeste 25 Noroeste 0 -- -- 90
2019-07-26 09:00:00 19.6 14 Noroeste 24 Oeste 0 -- -- 90
2019-07-26 08:00:00 19 11 Noroeste 24 Noroeste 0 -- -- 92
2019-07-26 07:00:00 18.9 9 Oeste 23 Oeste 0 -- -- 91
2019-07-26 06:00:00 19.1 9 Oeste 21 Oeste 0 -- -- 90
2019-07-26 05:00:00 19.3 11 Noroeste 19 Noroeste 0 -- -- 90
2019-07-26 04:00:00 19.6 10 Noroeste 20 Noroeste 0 -- -- 91
2019-07-26 03:00:00 19.7 8 Noroeste 23 Oeste 0 -- -- 88
2019-07-26 02:00:00 19.9 11 Noroeste 20 Noroeste 0 -- -- 85
2019-07-26 01:00:00 19.9 15 Oeste 27 Oeste 0 -- -- 86
2019-07-26 00:00:00 19.9 15 Noroeste 28 Noroeste 0 -- -- 92
2019-07-25 23:00:00 20.2 15 Noroeste 31 Noroeste 0 -- -- 90
2019-07-25 22:00:00 20.3 17 Noroeste 32 Noroeste 0 -- -- 87
2019-07-25 21:00:00 20.1 15 Noroeste 31 Noroeste 0 -- -- 84
2019-07-25 20:00:00 21.5 12 Noroeste 30 Noroeste 0 -- -- 77
2019-07-25 19:00:00 22 15 Noroeste 28 Noroeste 0 -- -- 74
2019-07-25 18:00:00 22.8 15 Noroeste 28 Noroeste 0 -- -- 74
2019-07-25 17:00:00 23.3 14 Noroeste 28 Noroeste 0 -- -- 70
2019-07-25 16:00:00 23.2 14 Noroeste 26 Noroeste 0 -- -- 76
2019-07-25 15:00:00 22.3 16 Noroeste 27 Noroeste 0 -- -- 77
2019-07-25 14:00:00 23.6 10 Noroeste 22 Oeste 0 -- -- 62
2019-07-25 13:00:00 23.5 10 Noroeste 21 Noroeste 0 -- -- 62
2019-07-25 12:00:00 23.4 13 Noroeste 20 Noroeste 0 -- -- 56
2019-07-25 11:00:00 23.5 9 Noroeste 19 Noroeste 0 -- -- 58
2019-07-25 10:00:00 22.7 8 Noroeste 17 Noroeste 0 -- -- 54
2019-07-25 09:00:00 20.3 7 Noroeste 17 Oeste 0 -- -- 67
2019-07-25 08:00:00 18.3 6 Oeste 12 Oeste 0 -- -- 73
2019-07-25 07:00:00 18.5 8 Noroeste 15 Oeste 0 -- -- 66
2019-07-25 06:00:00 18.3 5 Oeste 17 Oeste 0 -- -- 62
2019-07-25 05:00:00 18.9 9 Noroeste 21 Oeste 0 -- -- 71
2019-07-25 04:00:00 19.3 6 Oeste 18 Oeste 0 -- -- 66
2019-07-25 03:00:00 19.8 8 Noroeste 18 Oeste 0 -- -- 66
2019-07-25 02:00:00 19.7 9 Oeste 20 Oeste 0 -- -- 67
2019-07-25 01:00:00 19.4 10 Noroeste 22 Oeste 0 -- -- 78
2019-07-25 00:00:00 19.2 10 Oeste 24 Oeste 0 -- -- 82
2019-07-24 23:00:00 19.3 15 Noroeste 27 Noroeste 0 -- -- 85
2019-07-24 22:00:00 19.6 14 Noroeste 28 Noroeste 0 -- -- 84
2019-07-24 21:00:00 20 14 Noroeste 30 Oeste 0 -- -- 81
2019-07-24 20:00:00 20.7 15 Noroeste 28 Oeste 0 -- -- 79
2019-07-24 19:00:00 21.4 18 Noroeste 30 Noroeste 0 -- -- 78
2019-07-24 18:00:00 22.2 17 Noroeste 36 Noroeste 0 -- -- 75
2019-07-24 17:00:00 23 18 Noroeste 34 Noroeste 0 -- -- 71
2019-07-24 16:00:00 23.1 19 Noroeste 34 Noroeste 0 -- -- 70
2019-07-24 15:00:00 22.8 19 Noroeste 32 Noroeste 0 -- -- 72
2019-07-24 14:00:00 23 17 Noroeste 32 Norte 0 -- -- 73
2019-07-24 13:00:00 22.6 18 Noroeste 30 Noroeste 0 -- -- 74
2019-07-24 12:00:00 21.7 16 Noroeste 25 Noroeste 0 -- -- 75
2019-07-24 11:00:00 21.1 15 Noroeste 27 Noroeste 0 -- -- 78
2019-07-24 10:00:00 20.3 15 Noroeste 27 Oeste 0 -- -- 80
2019-07-24 09:00:00 19.2 15 Noroeste 26 Noroeste 0 -- -- 82
2019-07-24 08:00:00 18.4 13 Noroeste 23 Oeste 0 -- -- 87
2019-07-24 07:00:00 18.5 12 Oeste 27 Oeste 0 -- -- 86
2019-07-24 06:00:00 18.6 14 Noroeste 26 Noroeste 0 -- -- 86
2019-07-24 05:00:00 18.6 15 Noroeste 36 Oeste 0 -- -- 85
2019-07-24 04:00:00 18.6 15 Noroeste 30 Oeste 0 -- -- 85
2019-07-24 03:00:00 18.7 14 Noroeste 29 Oeste 0 -- -- 84
2019-07-24 02:00:00 18.7 14 Noroeste 31 Noroeste 0 -- -- 83
2019-07-24 01:00:00 18.9 15 Noroeste 32 Noroeste 0 -- -- 83
2019-07-24 00:00:00 18.9 17 Noroeste 31 Noroeste 0 -- -- 84
2019-07-23 23:00:00 19 19 Noroeste 32 Noroeste 0 -- -- 83
2019-07-23 22:00:00 19.1 18 Noroeste 33 Noroeste 0 -- -- 82
2019-07-23 21:00:00 19.2 19 Noroeste 39 Noroeste 0 -- -- 80
2019-07-23 20:00:00 19.8 19 Noroeste 37 Noroeste 0 -- -- 79
2019-07-23 19:00:00 20.2 21 Noroeste 39 Noroeste 0 -- -- 77
2019-07-23 18:00:00 21.2 21 Noroeste 35 Noroeste 0 -- -- 72
2019-07-23 17:00:00 21.2 19 Noroeste 35 Oeste 0 -- -- 74
2019-07-23 16:00:00 21.7 16 Noroeste 32 Noroeste 0 -- -- 73
2019-07-23 15:00:00 21.7 19 Noroeste 31 Noroeste 0 -- -- 72
2019-07-23 14:00:00 21.8 17 Noroeste 32 Noroeste 0 -- -- 70
2019-07-23 13:00:00 21.6 18 Noroeste 30 Noroeste 0 -- -- 74
2019-07-23 12:00:00 20 14 Noroeste 31 Noroeste 0 -- -- 77
2019-07-23 11:00:00 19.8 17 Noroeste 30 Noroeste 0 -- -- 77
2019-07-23 10:00:00 19.2 16 Noroeste 29 Noroeste 0 -- -- 80
2019-07-23 09:00:00 18.7 16 Noroeste 33 Noroeste 0 -- -- 80
2019-07-23 08:00:00 18.3 19 Noroeste 30 Noroeste 0 -- -- 82
2019-07-23 07:00:00 18.2 16 Noroeste 30 Noroeste 0 -- -- 82
2019-07-23 06:00:00 18.3 15 Noroeste 31 Noroeste 0 -- -- 82
2019-07-23 05:00:00 18.6 14 Noroeste 37 Noroeste 0 -- -- 81
2019-07-23 04:00:00 18.7 18 Noroeste 32 Noroeste 0 -- -- 81
2019-07-23 03:00:00 18.8 16 Noroeste 32 Oeste 0 -- -- 82
2019-07-23 02:00:00 18.9 14 Noroeste 31 Noroeste 0 -- -- 82
2019-07-23 01:00:00 19 19 Noroeste 32 Noroeste 0 -- -- 81
2019-07-23 00:00:00 19 19 Noroeste 33 Noroeste 0 -- -- 82
2019-07-22 23:00:00 18.9 16 Noroeste 34 Noroeste 0 -- -- 82
2019-07-22 22:00:00 19 15 Noroeste 31 Noroeste 0 -- -- 83
2019-07-22 21:00:00 19.1 15 Noroeste 31 Noroeste 0 -- -- 83
2019-07-22 20:00:00 19.4 17 Noroeste 27 Noroeste 0 -- -- 81
2019-07-22 19:00:00 20.1 13 Noroeste 31 Oeste 0 -- -- 80
2019-07-22 18:00:00 20.5 14 Noroeste 26 Noroeste 0 -- -- 79
2019-07-22 17:00:00 20.9 15 Noroeste 33 Noroeste 0 -- -- 77
2019-07-22 16:00:00 21.7 18 Noroeste 32 Noroeste 0 -- -- 75
2019-07-22 15:00:00 22.1 17 Noroeste 30 Noroeste 0 -- -- 71
2019-07-22 14:00:00 22.3 15 Noroeste 28 Noroeste 0 -- -- 72
2019-07-22 13:00:00 21 14 Noroeste 29 Norte 0 -- -- 78
2019-07-22 12:00:00 21 18 Noroeste 28 Noroeste 0 -- -- 78
2019-07-22 11:00:00 20 14 Noroeste 27 Noroeste 0 -- -- 81
2019-07-22 10:00:00 19.5 14 Noroeste 26 Noroeste 0 -- -- 81
2019-07-22 09:00:00 19 14 Noroeste 28 Noroeste 0 -- -- 82
2019-07-22 08:00:00 18.7 17 Noroeste 27 Noroeste 0 -- -- 83
2019-07-22 07:00:00 18.6 13 Noroeste 23 Noroeste 0 -- -- 85
2019-07-22 06:00:00 18.7 12 Noroeste 26 Noroeste 0 -- -- 83
2019-07-22 05:00:00 18.8 15 Noroeste 23 Norte 0 -- -- 85
2019-07-22 04:00:00 19 12 Noroeste 24 Noroeste 0 -- -- 82
2019-07-22 03:00:00 19 12 Noroeste 24 Noroeste 0 -- -- 83
2019-07-22 02:00:00 19 15 Noroeste 24 Noroeste 0 -- -- 84
2019-07-22 01:00:00 19.1 13 Noroeste 22 Noroeste 0 -- -- 84
2019-07-22 00:00:00 19.4 13 Noroeste 20 Noroeste 0 -- -- 84
2019-07-21 23:00:00 19.4 14 Noroeste 28 Noroeste 0 -- -- 83
2019-07-21 22:00:00 19.6 13 Noroeste 26 Noroeste 0 -- -- 82
2019-07-21 21:00:00 19.5 10 Noroeste 23 Oeste 0 -- -- 82
2019-07-21 20:00:00 20 14 Noroeste 28 Norte 0 -- -- 81
2019-07-21 19:00:00 20.5 12 Noroeste 26 Noroeste 0 -- -- 78
2019-07-21 18:00:00 20.9 17 Noroeste 28 Noroeste 0 -- -- 79
2019-07-21 17:00:00 21.3 16 Noroeste 27 Norte 0 -- -- 76
2019-07-21 16:00:00 21.8 11 Norte 26 Noroeste 0 -- -- 73
2019-07-21 15:00:00 21.7 12 Noroeste 25 Noroeste 0 -- -- 75
2019-07-21 14:00:00 21.5 14 Noroeste 26 Noroeste 0 -- -- 75
2019-07-21 13:00:00 20.9 15 Noroeste 26 Noroeste 0 -- -- 77
2019-07-21 12:00:00 20.7 13 Noroeste 24 Noroeste 0 -- -- 79
2019-07-21 11:00:00 20.3 12 Noroeste 22 Noroeste 0 -- -- 80
2019-07-21 10:00:00 20.3 10 Noroeste 17 Noroeste 0 -- -- 79
2019-07-21 09:00:00 19.4 8 Norte 13 Norte 0 -- -- 85
2019-07-21 08:00:00 18.9 5 Noroeste 17 Noroeste 0 -- -- 85
2019-07-21 07:00:00 18.9 8 Noroeste 18 Noroeste 0 -- -- 88
2019-07-21 06:00:00 19 8 Noroeste 18 Noroeste 0 -- -- 87
2019-07-21 05:00:00 19.1 7 Noroeste 16 Noroeste 0 -- -- 85
2019-07-21 04:00:00 19.2 9 Noroeste 18 Noroeste 0 -- -- 85
2019-07-21 03:00:00 19.4 9 Noroeste 21 Noroeste 0 -- -- 88
2019-07-21 02:00:00 19.5 8 Noroeste 18 Noroeste 0 -- -- 84
2019-07-21 01:00:00 19.5 12 Noroeste 22 Noroeste 0 -- -- 84
2019-07-21 00:00:00 19.7 10 Noroeste 20 Norte 0 -- -- 84
2019-07-20 23:00:00 19.8 10 Noroeste 21 Norte 0 -- -- 84
2019-07-20 22:00:00 20 10 Noroeste 25 Noroeste 0 -- -- 85
2019-07-20 21:00:00 20 14 Noroeste 26 Noroeste 0 -- -- 82
2019-07-20 20:00:00 20.5 12 Noroeste 27 Norte 0 -- -- 77
2019-07-20 19:00:00 20.8 16 Noroeste 33 Oeste 0 -- -- 76
2019-07-20 18:00:00 21.5 18 Noroeste 33 Noroeste 0 -- -- 71
2019-07-20 17:00:00 22.6 15 Noroeste 31 Noroeste 0 -- -- 67
2019-07-20 16:00:00 22.3 18 Noroeste 39 Norte 0 -- -- 70
2019-07-20 15:00:00 22.1 16 Noroeste 32 Noroeste 0 -- -- 71
2019-07-20 14:00:00 22 15 Noroeste 27 Noroeste 0 -- -- 71
2019-07-20 13:00:00 20.7 14 Noroeste 24 Noroeste 0 -- -- 78
2019-07-20 12:00:00 19.9 15 Noroeste 27 Noroeste 0 -- -- 81
2019-07-20 11:00:00 19.5 10 Noroeste 23 Noroeste 0 -- -- 87
2019-07-20 10:00:00 18.8 10 Noroeste 20 Noroeste 0 -- -- 93
2019-07-20 09:00:00 18.4 13 Noroeste 27 Noroeste 0 -- -- 93
2019-07-20 08:00:00 18.6 16 Noroeste 29 Noroeste 0 -- -- 93
2019-07-20 07:00:00 18.3 10 Noroeste 28 Noroeste 0 -- -- 94
2019-07-20 06:00:00 18.7 12 Oeste 25 Noroeste 0 -- -- 86
2019-07-20 05:00:00 18.4 14 Noroeste 33 Oeste 0 -- -- 91
2019-07-20 04:00:00 18.6 10 Noroeste 24 Oeste 0 -- -- 88
2019-07-20 03:00:00 18.9 13 Noroeste 27 Noroeste 0 -- -- 86
2019-07-20 02:00:00 18.9 15 Noroeste 29 Noroeste 0 -- -- 90
2019-07-20 01:00:00 19.1 16 Noroeste 29 Norte 0 -- -- 88
2019-07-20 00:00:00 19 9 Noroeste 27 Noroeste 0 -- -- 90
2019-07-19 23:00:00 19.5 15 Noroeste 30 Oeste 0 -- -- 86
2019-07-19 22:00:00 19.7 12 Noroeste 34 Noroeste 0 -- -- 82
2019-07-19 21:00:00 19.7 13 Noroeste 29 Noroeste 0 -- -- 87
2019-07-19 20:00:00 19.9 15 Noroeste 32 Noroeste 0 -- -- 85
2019-07-19 19:00:00 20.6 19 Noroeste 35 Oeste 0 -- -- 81
2019-07-19 18:00:00 21.1 22 Noroeste 36 Noroeste 0 -- -- 76
2019-07-19 17:00:00 21.7 16 Noroeste 33 Noroeste 0 -- -- 74
2019-07-19 16:00:00 21.9 19 Noroeste 35 Oeste 0 -- -- 72
2019-07-19 15:00:00 21.5 17 Noroeste 36 Noroeste 0 -- -- 75
2019-07-19 14:00:00 21.7 18 Noroeste 41 Noroeste 0 -- -- 72
2019-07-19 13:00:00 21.3 23 Noroeste 35 Noroeste 0 -- -- 70
2019-07-19 12:00:00 21.8 18 Noroeste 38 Oeste 0 -- -- 69
2019-07-19 11:00:00 20.5 22 Noroeste 43 Norte 0 -- -- 72
2019-07-19 10:00:00 20.1 19 Noroeste 47 Noroeste 0 -- -- 75
2019-07-19 09:00:00 19.4 20 Noroeste 39 Oeste 0 -- -- 72
2019-07-19 08:00:00 18.9 19 Noroeste 36 Noroeste 0 -- -- 72
2019-07-19 07:00:00 18.9 17 Noroeste 35 Noroeste 0 -- -- 74
2019-07-19 06:00:00 18.8 21 Noroeste 33 Noroeste 0 -- -- 75
2019-07-19 05:00:00 18.8 15 Noroeste 37 Noroeste 0 -- -- 71
2019-07-19 04:00:00 18.7 20 Noroeste 36 Noroeste 0 -- -- 76
2019-07-19 03:00:00 18.9 17 Noroeste 38 Noroeste 0 -- -- 76
2019-07-19 02:00:00 18.9 20 Noroeste 33 Noroeste 0 -- -- 82
2019-07-19 01:00:00 19 19 Noroeste 34 Noroeste 0 -- -- 76
2019-07-19 00:00:00 19.1 12 Noroeste 31 Noroeste 0 -- -- 76